Flight Track Log - Related Links

Times and Time Zones

All times are in EDT time to prevent confusion due to time zone crossing. See the N6199B flight status page for this flight to view local times or setup timezone preferences in your user account.

Time Position Orientation Groundspeed Altitude Reporting Facility
EDT Latitude Longitude Course Direction KTS MPH feet Rate Location/Type
Mon 09:11:52 PM 28.3333 -80.7333 166° South 102 117 4,500  Level Orlando TRACON
Mon 09:12:52 PM 28.3000 -80.7167 156° South 106 122 4,500  Level Orlando TRACON
Mon 09:13:52 PM 28.2833 -80.7167 180° South 105 121 4,500  Level Orlando TRACON
Mon 09:14:52 PM 28.2500 -80.7000 156° South 101 116 4,500  Level Orlando TRACON
Mon 09:15:52 PM 28.2167 -80.6833 156° South 101 116 4,500  Level Orlando TRACON
Mon 09:16:58 PM 28.2000 -80.6667 139° Southeast 100 115 4,500 48 Level Orlando TRACON
Mon 09:17:00 PM 28.3479 -80.7527 166° South  Level FlightAware Approximate
Mon 09:17:58 PM 28.1667 -80.6500 156° South 100 115 4,600  Level Orlando TRACON
Mon 09:18:53 PM 28.1500 -80.6333 139° Southeast 103 119 4,500  Descending Orlando TRACON
Mon 09:19:59 PM 28.1167 -80.6333 180° South 100 115 4,600  Climbing Orlando TRACON
Mon 09:20:59 PM 28.1000 -80.6167 139° Southeast 104 120 4,500 -48 Descending Orlando TRACON
Mon 09:22:05 PM 28.0667 -80.6000 156° South 103 119 4,500  Level Orlando TRACON
Mon 09:22:48 PM 28.0453 -80.5972 173° South 102 117 4,500  Level Miami Center
Mon 09:23:48 PM 28.0186 -80.5869 161° South 108 124 4,500  Level Miami Center
Mon 09:24:48 PM 27.9958 -80.5769 159° South 108 124 4,500  Level Miami Center
Mon 09:25:48 PM 27.9689 -80.5714 170° South 102 117 4,500  Level Miami Center
Mon 09:26:48 PM 27.9372 -80.5797 193° South 102 117 4,500  Level Miami Center
Mon 09:27:48 PM 27.9083 -80.5717 166° South 102 117 4,500 50 Level Miami Center
Mon 09:28:48 PM 27.8833 -80.5639 165° South 107 123 4,600  Climbing Miami Center
Mon 09:29:48 PM 27.8567 -80.5536 161° South 107 123 4,500 -50 Descending Miami Center
Mon 09:30:48 PM 27.8256 -80.5383 157° South 107 123 4,500  Level Miami Center
Mon 09:31:48 PM 27.7967 -80.5328 170° South 107 123 4,500  Level Miami Center
Mon 09:32:48 PM 27.7697 -80.5250 166° South 107 123 4,500 50 Level Miami Center
Mon 09:33:48 PM 27.7469 -80.5125 154° Southeast 101 116 4,600 50 Climbing Miami Center
Mon 09:34:48 PM 27.7203 -80.4997 157° South 106 122 4,600 -50 Level Miami Center
Mon 09:35:48 PM 27.6914 -80.4872 159° South 106 122 4,500  Descending Miami Center
Mon 09:36:48 PM 27.6622 -80.4817 170° South 106 122 4,600  Climbing Miami Center
Mon 09:37:48 PM 27.6331 -80.4758 170° South 106 122 4,500 -50 Descending Miami Center
Mon 09:38:48 PM 27.6081 -80.4706 169° South 106 122 4,500  Level Miami Center
Mon 09:39:48 PM 27.5814 -80.4603 161° South 106 122 4,500  Level Miami Center
Mon 09:40:48 PM 27.5525 -80.4431 152° Southeast 106 122 4,500  Level Miami Center
Mon 09:41:48 PM 27.5278 -80.4306 156° South 106 122 4,500  Level Miami Center
Mon 09:42:48 PM 27.5031 -80.4156 152° Southeast 106 122 4,500  Level Miami Center
Mon 09:43:48 PM 27.4825 -80.4011 148° Southeast 106 122 4,500  Level Miami Center
Mon 09:44:48 PM 27.4578 -80.3861 152° Southeast 106 122 4,500  Level Miami Center
Mon 09:45:48 PM 27.4311 -80.3689 150° Southeast 106 122 4,500 49 Level Miami Center
Mon 09:46:50 PM 27.4064 -80.3519 149° Southeast 100 115 4,600  Climbing Miami Center
Mon 09:47:50 PM 27.3839 -80.3347 146° Southeast 100 115 4,500  Descending Miami Center
Mon 09:48:51 PM 27.3614 -80.3225 154° Southeast 100 115 4,600 50 Climbing Miami Center
Mon 09:49:51 PM 27.3325 -80.3075 155° Southeast 100 115 4,600 -51 Level Miami Center
Mon 09:50:48 PM 27.3056 -80.2950 158° South 105 121 4,500 -51 Descending Miami Center
Mon 09:51:48 PM 27.2808 -80.2828 156° South 105 121 4,500  Level Miami Center
Mon 09:52:50 PM 27.2558 -80.2725 160° South 110 127 4,500  Level Miami Center
Mon 09:53:51 PM 27.2289 -80.2647 166° South 105 121 4,500  Level Miami Center
Mon 09:55:00 PM 27.1973 -80.2819 206° Southwest  Level FlightAware Approximate
Mon 10:02:00 PM 26.9852 -80.2581 172° South  Level Estimated
Mon 10:03:00 PM 26.9548 -80.2550 175° South  Level FlightAware Approximate
Mon 10:04:00 PM 26.9245 -80.2519 175° South  Level FlightAware Approximate
Mon 10:05:00 PM 26.8941 -80.2488 175° South  Level FlightAware Approximate
Mon 10:06:00 PM 26.8638 -80.2457 175° South  Level FlightAware Approximate
Mon 10:07:00 PM 26.8335 -80.2426 175° South  Level FlightAware Approximate
Mon 10:08:00 PM 26.8031 -80.2395 175° South  Level FlightAware Approximate
Mon 10:09:00 PM 26.7728 -80.2364 175° South  Level FlightAware Approximate
Mon 10:10:00 PM 26.7424 -80.2332 175° South  Level FlightAware Approximate
Mon 10:11:00 PM 26.7121 -80.2301 175° South  Level FlightAware Approximate
Mon 10:12:00 PM 26.6818 -80.2270 175° South  Level FlightAware Approximate
Mon 10:13:00 PM 26.6514 -80.2239 175° South  Level FlightAware Approximate
Mon 10:14:00 PM 26.6211 -80.2208 175° South  Level FlightAware Approximate
Mon 10:15:00 PM 26.5907 -80.2177 175° South  Level FlightAware Approximate
Mon 10:16:00 PM 26.5604 -80.2146 175° South  Level FlightAware Approximate

Login

Don't have an account? Register now (free) for customized features, flight alerts, and more!